Time;durP1;ratioP1;P1;durP2;ratioP2;P2;SDS_P1;SDS_P2;PMS_P1;PMS_P2;Temp;Humidity;BMP_temperature;BMP_pressure;BME280_temperature;BME280_humidity;BME280_pressure;Samples;Min_cycle;Max_cycle;Signal;HPM_P1;HPM_P2
2023/08/27 00:00:25;;;;;;;5.70;5.30;;;;;;;;;;4990884;28;100085;-70
2023/08/27 00:02:51;;;;;;;5.95;5.47;;;;;;;;;;4988336;28;99311;-70
2023/08/27 00:05:19;;;;;;;10.90;5.82;;;;;;;;;;4988575;28;99897;-70
2023/08/27 00:07:45;;;;;;;7.18;6.50;;;;;;;;;;4989118;28;99779;-72
2023/08/27 00:10:12;;;;;;;6.93;6.28;;;;;;;;;;4988197;28;99003;-70
2023/08/27 00:12:38;;;;;;;9.60;5.72;;;;;;;;;;4989366;27;98591;-70
2023/08/27 00:15:05;;;;;;;6.45;5.88;;;;;;;;;;4989316;28;99708;-71
2023/08/27 00:17:31;;;;;;;9.27;6.20;;;;;;;;;;4987364;28;99934;-70
2023/08/27 00:19:58;;;;;;;7.45;6.85;;;;;;;;;;4988951;28;99383;-71
2023/08/27 00:22:24;;;;;;;6.55;5.93;;;;;;;;;;4990694;28;99998;-70
2023/08/27 00:24:51;;;;;;;7.15;6.45;;;;;;;;;;4988210;28;100635;-71
2023/08/27 00:27:17;;;;;;;6.72;6.10;;;;;;;;;;5006425;28;99677;-70
2023/08/27 00:29:46;;;;;;;6.20;5.80;;;;;;;;;;5006303;28;101164;-69
2023/08/27 00:32:12;;;;;;;8.35;6.18;;;;;;;;;;5007045;28;101760;-71
2023/08/27 00:34:51;;;;;;;6.05;5.55;;;;;;;;;;5008835;28;99044;-71
2023/08/27 00:37:20;;;;;;;7.63;6.90;;;;;;;;;;5005898;28;101306;-71
2023/08/27 00:39:46;;;;;;;6.78;6.07;;;;;;;;;;5007924;28;101567;-71
2023/08/27 00:42:12;;;;;;;6.95;6.25;;;;;;;;;;4992031;28;99447;-72
2023/08/27 00:44:39;;;;;;;6.50;5.88;;;;;;;;;;5009515;28;98581;-71
2023/08/27 00:47:06;;;;;;;6.47;5.85;;;;;;;;;;5008186;28;100748;-71
2023/08/27 00:49:32;;;;;;;9.73;5.75;;;;;;;;;;5007674;28;100226;-71
2023/08/27 00:51:59;;;;;;;6.38;5.88;;;;;;;;;;5007471;28;99908;-71
2023/08/27 00:54:26;;;;;;;6.97;5.70;;;;;;;;;;5006720;28;100170;-71
2023/08/27 00:56:53;;;;;;;5.97;5.55;;;;;;;;;;5006818;28;101781;-71
2023/08/27 00:59:19;;;;;;;6.85;6.15;;;;;;;;;;5004903;28;102233;-71
2023/08/27 01:01:46;;;;;;;7.55;5.97;;;;;;;;;;5006782;28;100095;-70
2023/08/27 01:04:12;;;;;;;7.13;5.63;;;;;;;;;;5011805;28;98716;-70
2023/08/27 01:06:39;;;;;;;9.98;6.03;;;;;;;;;;5007154;28;99445;-71
2023/08/27 01:09:10;;;;;;;11.88;5.95;;;;;;;;;;5006593;28;101883;-71
2023/08/27 01:11:52;;;;;;;6.35;5.82;;;;;;;;;;4993602;28;99196;-72
2023/08/27 01:14:19;;;;;;;9.63;5.72;;;;;;;;;;4985580;28;101794;-71
2023/08/27 01:16:47;;;;;;;6.20;5.65;;;;;;;;;;4991786;28;101651;-69
2023/08/27 01:19:14;;;;;;;6.25;5.80;;;;;;;;;;5006716;28;99914;-71
2023/08/27 01:21:44;;;;;;;7.28;5.97;;;;;;;;;;5005404;28;99705;-69
2023/08/27 01:24:10;;;;;;;8.95;6.15;;;;;;;;;;5006399;28;99939;-70
2023/08/27 01:26:40;;;;;;;6.10;5.70;;;;;;;;;;5010333;28;99802;-71
2023/08/27 01:29:21;;;;;;;6.68;5.78;;;;;;;;;;4989979;28;101717;-71
2023/08/27 01:31:52;;;;;;;6.93;5.93;;;;;;;;;;5007885;28;98465;-71
2023/08/27 01:34:21;;;;;;;6.90;6.30;;;;;;;;;;5005312;28;101459;-72
2023/08/27 01:36:48;;;;;;;6.32;5.72;;;;;;;;;;5000303;28;99134;-71
2023/08/27 01:39:15;;;;;;;6.38;5.88;;;;;;;;;;4987211;28;99593;-71
2023/08/27 01:41:42;;;;;;;6.22;5.72;;;;;;;;;;4986981;28;100225;-71
2023/08/27 01:44:10;;;;;;;7.05;5.85;;;;;;;;;;4986128;28;99915;-71
2023/08/27 01:46:36;;;;;;;6.63;6.10;;;;;;;;;;4987900;28;99186;-70
2023/08/27 01:49:03;;;;;;;6.22;5.78;;;;;;;;;;4988804;28;101168;-70
2023/08/27 01:51:30;;;;;;;6.47;6.05;;;;;;;;;;4998402;28;98975;-69
2023/08/27 01:53:56;;;;;;;5.72;5.43;;;;;;;;;;5007841;28;99098;-71
2023/08/27 01:56:23;;;;;;;6.03;5.60;;;;;;;;;;5005536;28;101497;-71
2023/08/27 01:58:50;;;;;;;9.48;5.82;;;;;;;;;;5006323;28;99327;-71
2023/08/27 02:01:17;;;;;;;8.38;5.45;;;;;;;;;;4989683;28;100213;-72
2023/08/27 02:03:45;;;;;;;6.53;6.00;;;;;;;;;;4967584;28;98869;-70
2023/08/27 02:06:11;;;;;;;6.20;5.70;;;;;;;;;;4968129;28;100116;-70
2023/08/27 02:08:38;;;;;;;8.45;6.28;;;;;;;;;;4997420;28;100167;-70
2023/08/27 02:11:06;;;;;;;6.72;6.15;;;;;;;;;;5010308;28;100001;-71
2023/08/27 02:13:32;;;;;;;6.57;5.97;;;;;;;;;;5006359;28;99328;-69
2023/08/27 02:15:59;;;;;;;5.97;5.55;;;;;;;;;;5004607;28;101211;-71
2023/08/27 02:18:25;;;;;;;6.95;6.22;;;;;;;;;;5007102;28;98966;-71
2023/08/27 02:20:52;;;;;;;9.32;6.25;;;;;;;;;;5005927;28;100979;-70
2023/08/27 02:23:19;;;;;;;8.23;6.15;;;;;;;;;;5004675;28;99997;-70
2023/08/27 02:25:46;;;;;;;6.50;6.03;;;;;;;;;;4991130;28;99532;-70
2023/08/27 02:28:12;;;;;;;5.93;5.50;;;;;;;;;;4986869;28;99333;-69
2023/08/27 02:30:39;;;;;;;7.97;6.35;;;;;;;;;;4985032;28;100919;-71
2023/08/27 02:33:06;;;;;;;6.18;5.72;;;;;;;;;;4989043;28;101363;-72
2023/08/27 02:35:32;;;;;;;7.13;6.40;;;;;;;;;;4990982;28;99218;-71
2023/08/27 02:37:59;;;;;;;6.60;6.00;;;;;;;;;;4989808;28;98901;-71
2023/08/27 02:40:25;;;;;;;7.13;6.50;;;;;;;;;;4985337;28;101500;-71
2023/08/27 02:42:52;;;;;;;6.95;6.45;;;;;;;;;;5005678;28;98722;-71
2023/08/27 02:45:19;;;;;;;6.38;5.88;;;;;;;;;;5008126;28;100393;-72
2023/08/27 02:47:46;;;;;;;6.90;6.20;;;;;;;;;;5008954;28;102214;-72
2023/08/27 02:50:14;;;;;;;6.95;6.30;;;;;;;;;;5008703;28;100105;-71
2023/08/27 02:52:41;;;;;;;6.35;5.85;;;;;;;;;;5011972;28;101582;-71
2023/08/27 02:55:07;;;;;;;6.60;6.00;;;;;;;;;;5008792;28;101383;-71
2023/08/27 02:57:34;;;;;;;6.20;5.70;;;;;;;;;;5007842;28;101499;-70
2023/08/27 03:00:00;;;;;;;6.07;5.57;;;;;;;;;;5008169;28;100614;-70
2023/08/27 03:02:27;;;;;;;6.93;5.28;;;;;;;;;;5010306;28;98831;-71
2023/08/27 03:04:53;;;;;;;5.68;5.30;;;;;;;;;;5009374;28;100098;-71
2023/08/27 03:07:20;;;;;;;5.35;4.63;;;;;;;;;;4995807;28;101008;-71
2023/08/27 03:09:46;;;;;;;4.50;4.20;;;;;;;;;;4988775;28;101688;-71
2023/08/27 03:12:16;;;;;;;6.10;4.88;;;;;;;;;;4987684;28;100480;-72
2023/08/27 03:14:42;;;;;;;4.82;4.43;;;;;;;;;;4993141;28;99913;-71
2023/08/27 03:17:09;;;;;;;4.60;4.30;;;;;;;;;;5006566;28;99726;-71
2023/08/27 03:19:37;;;;;;;4.28;3.97;;;;;;;;;;4990394;28;99393;-71
2023/08/27 03:22:03;;;;;;;4.05;3.75;;;;;;;;;;4988441;28;100402;-71
2023/08/27 03:24:30;;;;;;;4.13;3.72;;;;;;;;;;4987944;28;101457;-71
2023/08/27 03:26:56;;;;;;;5.50;3.80;;;;;;;;;;4988694;28;99308;-70
2023/08/27 03:29:23;;;;;;;5.10;4.55;;;;;;;;;;4989649;28;99206;-71
2023/08/27 03:31:50;;;;;;;7.75;3.58;;;;;;;;;;4988637;28;100106;-71
2023/08/27 03:34:18;;;;;;;4.35;3.72;;;;;;;;;;4987529;28;100301;-71
2023/08/27 03:36:44;;;;;;;8.05;3.72;;;;;;;;;;4990656;28;101374;-71
2023/08/27 03:39:11;;;;;;;5.72;4.15;;;;;;;;;;4987158;28;101690;-71
2023/08/27 03:41:38;;;;;;;5.20;4.80;;;;;;;;;;4979057;28;101614;-72
2023/08/27 03:44:04;;;;;;;6.72;4.45;;;;;;;;;;4988034;28;100927;-70
2023/08/27 03:46:32;;;;;;;6.38;5.78;;;;;;;;;;4988273;28;100163;-70
2023/08/27 03:49:04;;;;;;;11.48;5.22;;;;;;;;;;4989351;28;99924;-70
2023/08/27 03:51:30;;;;;;;7.38;5.80;;;;;;;;;;5008691;28;98724;-70
2023/08/27 03:53:57;;;;;;;6.97;5.00;;;;;;;;;;5005687;28;101361;-71
2023/08/27 03:56:24;;;;;;;6.07;5.47;;;;;;;;;;5008003;28;100774;-71
2023/08/27 03:58:50;;;;;;;14.77;5.28;;;;;;;;;;5012125;28;99221;-71
2023/08/27 04:01:17;;;;;;;6.00;5.43;;;;;;;;;;4992695;28;101825;-71
2023/08/27 04:03:44;;;;;;;10.93;5.38;;;;;;;;;;4967218;28;101469;-70
2023/08/27 04:06:11;;;;;;;8.88;5.18;;;;;;;;;;4974353;28;100120;-70
2023/08/27 04:08:38;;;;;;;7.30;4.78;;;;;;;;;;5006520;28;102585;-71
2023/08/27 04:11:04;;;;;;;7.72;5.55;;;;;;;;;;5008938;28;98886;-71
2023/08/27 04:13:31;;;;;;;8.13;5.25;;;;;;;;;;5007197;28;99382;-71
2023/08/27 04:16:02;;;;;;;6.32;5.53;;;;;;;;;;5006886;28;100661;-70
2023/08/27 04:18:29;;;;;;;7.43;4.90;;;;;;;;;;5007183;28;101542;-71
2023/08/27 04:20:55;;;;;;;7.72;5.18;;;;;;;;;;5011196;28;101304;-70
2023/08/27 04:23:24;;;;;;;5.15;4.78;;;;;;;;;;5006669;28;99007;-70
2023/08/27 04:25:50;;;;;;;6.85;4.97;;;;;;;;;;5008870;28;99059;-72
2023/08/27 04:28:17;;;;;;;8.25;5.82;;;;;;;;;;5007777;28;99294;-71
2023/08/27 04:30:47;;;;;;;7.00;4.82;;;;;;;;;;5007752;28;99776;-71
2023/08/27 04:33:14;;;;;;;8.32;5.35;;;;;;;;;;5006918;28;101825;-70
2023/08/27 04:35:42;;;;;;;6.50;5.80;;;;;;;;;;5007067;28;99334;-70
2023/08/27 04:38:08;;;;;;;8.63;5.63;;;;;;;;;;4986799;28;101893;-70
2023/08/27 04:40:38;;;;;;;11.25;6.03;;;;;;;;;;4990994;28;102406;-70
2023/08/27 04:43:05;;;;;;;6.10;5.32;;;;;;;;;;5009461;28;99990;-72
2023/08/27 04:45:31;;;;;;;7.90;5.43;;;;;;;;;;5008322;28;99645;-71
2023/08/27 04:47:58;;;;;;;5.95;5.53;;;;;;;;;;5008340;28;99372;-71
2023/08/27 04:50:25;;;;;;;6.50;5.75;;;;;;;;;;5005739;28;99962;-70
2023/08/27 04:52:51;;;;;;;9.13;6.07;;;;;;;;;;5006349;28;101967;-70
2023/08/27 04:55:18;;;;;;;7.55;6.10;;;;;;;;;;5006528;28;101799;-70
2023/08/27 04:57:45;;;;;;;7.40;5.57;;;;;;;;;;5005255;28;101539;-70
2023/08/27 05:00:20;;;;;;;7.25;5.72;;;;;;;;;;5008017;28;99092;-69
2023/08/27 05:02:47;;;;;;;6.68;5.75;;;;;;;;;;5011049;28;99878;-71
2023/08/27 05:05:13;;;;;;;5.55;5.03;;;;;;;;;;5005312;28;99490;-70
2023/08/27 05:07:41;;;;;;;6.53;5.40;;;;;;;;;;4988142;28;100109;-70
2023/08/27 05:10:08;;;;;;;6.90;5.65;;;;;;;;;;4986952;28;100073;-69
2023/08/27 05:12:34;;;;;;;5.93;5.43;;;;;;;;;;4987066;28;99243;-70
2023/08/27 05:15:03;;;;;;;13.65;5.97;;;;;;;;;;4994003;28;101748;-70
2023/08/27 05:17:30;;;;;;;5.80;5.15;;;;;;;;;;5005442;28;102178;-70
2023/08/27 05:19:58;;;;;;;8.68;5.38;;;;;;;;;;5007055;28;100216;-70
2023/08/27 05:22:24;;;;;;;10.88;5.57;;;;;;;;;;5006142;28;102205;-70
2023/08/27 05:24:50;;;;;;;6.63;5.93;;;;;;;;;;5000394;28;101406;-71
2023/08/27 05:27:17;;;;;;;5.43;4.85;;;;;;;;;;4984679;28;101095;-70
2023/08/27 05:29:43;;;;;;;11.23;6.07;;;;;;;;;;4985943;28;99400;-70
2023/08/27 05:32:11;;;;;;;6.30;5.75;;;;;;;;;;4986203;28;101796;-70
2023/08/27 05:34:37;;;;;;;6.53;5.22;;;;;;;;;;4986458;28;101364;-70
2023/08/27 05:37:05;;;;;;;9.63;4.78;;;;;;;;;;4986525;28;99355;-69
2023/08/27 05:39:33;;;;;;;8.85;4.95;;;;;;;;;;4984876;28;99448;-71
2023/08/27 05:42:00;;;;;;;7.90;4.85;;;;;;;;;;4985805;28;99942;-70
2023/08/27 05:44:28;;;;;;;6.43;4.43;;;;;;;;;;4985815;28;100752;-71
2023/08/27 05:46:56;;;;;;;7.03;4.07;;;;;;;;;;4988645;28;99501;-70
2023/08/27 05:49:24;;;;;;;4.00;3.80;;;;;;;;;;4986226;28;98943;-71
2023/08/27 05:51:50;;;;;;;4.68;3.95;;;;;;;;;;4986985;28;100260;-70
2023/08/27 05:54:16;;;;;;;4.40;4.00;;;;;;;;;;4984761;28;101719;-70
2023/08/27 05:56:43;;;;;;;6.55;4.50;;;;;;;;;;4986141;28;102083;-71
2023/08/27 05:59:12;;;;;;;5.18;4.05;;;;;;;;;;4987666;28;98377;-70
2023/08/27 06:01:38;;;;;;;4.07;3.72;;;;;;;;;;4984343;28;100205;-70
2023/08/27 06:04:04;;;;;;;11.40;4.82;;;;;;;;;;4986114;28;101669;-71
2023/08/27 06:06:31;;;;;;;5.35;3.67;;;;;;;;;;4985428;28;102380;-71
2023/08/27 06:08:58;;;;;;;3.60;3.22;;;;;;;;;;4988628;28;101427;-71
2023/08/27 06:11:24;;;;;;;6.55;2.83;;;;;;;;;;4985173;28;99275;-71
2023/08/27 06:13:51;;;;;;;3.45;3.15;;;;;;;;;;4985743;28;100871;-69
2023/08/27 06:16:18;;;;;;;4.32;3.10;;;;;;;;;;4983825;28;101039;-71
2023/08/27 06:18:44;;;;;;;3.15;2.95;;;;;;;;;;4985670;28;102520;-71
2023/08/27 06:21:11;;;;;;;3.00;2.53;;;;;;;;;;4985696;28;99985;-71
2023/08/27 06:23:37;;;;;;;5.88;2.78;;;;;;;;;;4985949;28;99749;-71
2023/08/27 06:26:05;;;;;;;4.35;3.08;;;;;;;;;;4985184;28;101412;-70
2023/08/27 06:28:32;;;;;;;3.00;2.80;;;;;;;;;;4984605;28;101192;-70
2023/08/27 06:30:59;;;;;;;5.07;3.00;;;;;;;;;;4989816;28;99243;-71
2023/08/27 06:33:26;;;;;;;3.63;2.60;;;;;;;;;;4984834;28;101979;-70
2023/08/27 06:35:53;;;;;;;3.08;2.75;;;;;;;;;;4983784;28;100818;-71
2023/08/27 06:38:19;;;;;;;2.97;2.55;;;;;;;;;;4986517;28;99521;-71
2023/08/27 06:40:46;;;;;;;3.15;2.78;;;;;;;;;;4998798;28;101668;-71
2023/08/27 06:43:12;;;;;;;7.07;3.00;;;;;;;;;;5005677;28;98771;-72
2023/08/27 06:45:43;;;;;;;2.63;2.40;;;;;;;;;;4998631;28;102334;-70
2023/08/27 06:48:13;;;;;;;2.83;2.63;;;;;;;;;;4986748;28;98733;-71
2023/08/27 06:50:40;;;;;;;4.93;3.15;;;;;;;;;;4984573;28;99140;-71
2023/08/27 06:53:08;;;;;;;3.53;3.33;;;;;;;;;;4989737;28;99238;-71
2023/08/27 06:55:35;;;;;;;3.28;3.08;;;;;;;;;;4983490;28;100482;-71
2023/08/27 06:58:02;;;;;;;4.63;2.80;;;;;;;;;;4984803;28;102120;-71
2023/08/27 07:00:29;;;;;;;5.28;2.95;;;;;;;;;;4983409;28;98910;-71
2023/08/27 07:02:58;;;;;;;5.90;3.50;;;;;;;;;;4984996;28;98951;-69
2023/08/27 07:05:24;;;;;;;8.73;3.70;;;;;;;;;;4983938;28;100540;-70
2023/08/27 07:07:51;;;;;;;3.92;3.53;;;;;;;;;;4984056;28;98887;-71
2023/08/27 07:10:18;;;;;;;4.47;4.15;;;;;;;;;;4985056;27;102173;-71
2023/08/27 07:12:45;;;;;;;7.80;3.70;;;;;;;;;;4989211;28;98654;-70
2023/08/27 07:15:13;;;;;;;6.32;4.40;;;;;;;;;;4985084;28;100986;-73
2023/08/27 07:17:41;;;;;;;4.70;4.28;;;;;;;;;;4985519;28;99476;-71
2023/08/27 07:20:09;;;;;;;4.57;4.18;;;;;;;;;;4984601;28;101544;-70
2023/08/27 07:22:35;;;;;;;7.18;5.00;;;;;;;;;;4985002;28;102168;-72
2023/08/27 07:25:02;;;;;;;5.53;4.90;;;;;;;;;;4974127;28;101371;-72
2023/08/27 07:27:30;;;;;;;6.07;5.15;;;;;;;;;;4976889;28;100721;-73
2023/08/27 07:29:57;;;;;;;6.43;5.70;;;;;;;;;;4982107;28;104136;-71
2023/08/27 07:32:23;;;;;;;9.13;6.43;;;;;;;;;;4979300;28;102148;-72
2023/08/27 07:34:50;;;;;;;6.60;5.25;;;;;;;;;;4991729;28;99140;-70
2023/08/27 07:37:18;;;;;;;11.15;6.78;;;;;;;;;;4988268;28;99583;-70
2023/08/27 07:39:45;;;;;;;7.63;6.40;;;;;;;;;;4979131;28;98993;-71
2023/08/27 07:42:11;;;;;;;10.50;5.85;;;;;;;;;;4977206;28;99976;-72
2023/08/27 07:44:39;;;;;;;8.55;5.97;;;;;;;;;;4983878;28;101730;-71
2023/08/27 07:47:07;;;;;;;7.47;6.75;;;;;;;;;;4980269;28;101140;-71
2023/08/27 07:49:33;;;;;;;9.07;6.85;;;;;;;;;;4967592;28;102049;-72
2023/08/27 07:52:02;;;;;;;8.23;7.10;;;;;;;;;;4987694;28;102130;-71
2023/08/27 07:54:28;;;;;;;8.25;7.00;;;;;;;;;;4975676;28;100804;-70
2023/08/27 07:56:56;;;;;;;7.25;6.63;;;;;;;;;;4970845;28;100787;-71
2023/08/27 07:59:23;;;;;;;9.88;7.75;;;;;;;;;;4969146;28;98943;-71
2023/08/27 08:01:49;;;;;;;7.63;7.03;;;;;;;;;;4967702;28;101316;-71
2023/08/27 08:04:17;;;;;;;11.07;7.13;;;;;;;;;;4980785;28;100506;-72
2023/08/27 08:06:44;;;;;;;15.70;6.97;;;;;;;;;;4988235;28;99476;-71
2023/08/27 08:09:13;;;;;;;11.45;6.43;;;;;;;;;;4986580;28;99277;-70
2023/08/27 08:11:40;;;;;;;9.00;6.25;;;;;;;;;;4982096;28;100023;-71
2023/08/27 08:14:06;;;;;;;10.10;6.68;;;;;;;;;;4970138;28;100079;-71
2023/08/27 08:16:32;;;;;;;7.53;6.53;;;;;;;;;;4970811;28;100124;-72
2023/08/27 08:18:59;;;;;;;8.88;6.38;;;;;;;;;;4977555;28;100496;-70
2023/08/27 08:21:25;;;;;;;7.00;6.28;;;;;;;;;;4971945;28;101323;-71
2023/08/27 08:23:52;;;;;;;11.60;6.70;;;;;;;;;;4972054;28;100344;-70
2023/08/27 08:26:18;;;;;;;6.45;5.90;;;;;;;;;;4971147;28;99326;-71
2023/08/27 08:28:45;;;;;;;7.47;5.82;;;;;;;;;;4977957;28;99254;-70
2023/08/27 08:31:11;;;;;;;8.27;5.40;;;;;;;;;;4972691;28;100714;-70
2023/08/27 08:33:39;;;;;;;6.43;4.90;;;;;;;;;;4968988;28;100152;-71
2023/08/27 08:36:05;;;;;;;6.93;4.53;;;;;;;;;;4968498;28;100629;-70
2023/08/27 08:38:33;;;;;;;4.78;4.32;;;;;;;;;;4976638;28;100159;-72
2023/08/27 08:41:01;;;;;;;5.50;4.50;;;;;;;;;;4990251;28;99063;-73
2023/08/27 08:43:30;;;;;;;3.90;3.58;;;;;;;;;;4975889;28;99368;-72
2023/08/27 08:46:03;;;;;;;5.15;4.57;;;;;;;;;;4984382;28;99001;-74
2023/08/27 08:48:30;;;;;;;6.13;5.20;;;;;;;;;;4988152;28;99909;-73
2023/08/27 08:50:58;;;;;;;7.50;5.22;;;;;;;;;;4973870;28;99631;-73
2023/08/27 08:53:27;;;;;;;7.18;4.80;;;;;;;;;;4968101;28;99918;-72
2023/08/27 08:55:57;;;;;;;6.22;4.82;;;;;;;;;;4968046;28;100997;-73
2023/08/27 08:58:29;;;;;;;4.90;4.50;;;;;;;;;;4967379;28;100897;-72
2023/08/27 09:00:56;;;;;;;9.40;5.15;;;;;;;;;;4968875;28;99451;-73
2023/08/27 09:03:22;;;;;;;8.38;5.07;;;;;;;;;;4970510;28;99940;-73
2023/08/27 09:05:50;;;;;;;5.50;4.50;;;;;;;;;;4968171;28;100422;-73
2023/08/27 09:08:18;;;;;;;5.97;4.43;;;;;;;;;;4977533;28;99925;-77
2023/08/27 09:10:45;;;;;;;6.50;4.30;;;;;;;;;;4987374;28;99532;-74
2023/08/27 09:13:11;;;;;;;5.10;3.50;;;;;;;;;;4987508;28;99038;-74
2023/08/27 09:15:38;;;;;;;5.07;3.72;;;;;;;;;;4973746;28;99807;-74
2023/08/27 09:18:04;;;;;;;4.50;3.70;;;;;;;;;;4967026;28;100200;-73
2023/08/27 09:20:31;;;;;;;3.80;3.33;;;;;;;;;;4967591;28;100743;-73
2023/08/27 09:22:57;;;;;;;5.22;3.78;;;;;;;;;;4970793;28;99304;-72
2023/08/27 09:25:24;;;;;;;4.00;3.60;;;;;;;;;;4966851;28;99618;-72
2023/08/27 09:27:51;;;;;;;7.80;4.13;;;;;;;;;;4968001;28;99004;-73
2023/08/27 09:30:17;;;;;;;6.88;4.00;;;;;;;;;;4967530;28;99309;-73
2023/08/27 09:32:47;;;;;;;6.90;4.50;;;;;;;;;;4967018;28;100056;-72
2023/08/27 09:35:13;;;;;;;5.88;4.70;;;;;;;;;;4967315;28;100137;-73
2023/08/27 09:37:43;;;;;;;5.10;4.40;;;;;;;;;;4967712;28;99476;-73
2023/08/27 09:40:10;;;;;;;5.63;4.90;;;;;;;;;;4967460;28;99991;-72
2023/08/27 09:42:37;;;;;;;5.30;5.00;;;;;;;;;;4968143;28;99289;-72
2023/08/27 09:45:04;;;;;;;9.43;5.80;;;;;;;;;;4972783;28;100130;-72
2023/08/27 09:47:32;;;;;;;4.85;4.45;;;;;;;;;;4968172;28;99947;-74
2023/08/27 09:50:03;;;;;;;5.85;4.80;;;;;;;;;;4967377;28;100148;-73
2023/08/27 09:52:30;;;;;;;4.93;4.43;;;;;;;;;;4965948;28;99816;-73
2023/08/27 09:54:56;;;;;;;4.65;4.20;;;;;;;;;;4967459;28;100301;-72
2023/08/27 09:57:23;;;;;;;3.05;2.58;;;;;;;;;;4967193;28;100655;-72
2023/08/27 09:59:49;;;;;;;2.42;2.33;;;;;;;;;;4966726;28;99380;-71
2023/08/27 10:02:19;;;;;;;3.47;2.20;;;;;;;;;;4967328;28;99228;-71
2023/08/27 10:04:56;;;;;;;2.33;2.22;;;;;;;;;;4967867;28;98737;-71
2023/08/27 10:07:23;;;;;;;2.20;2.00;;;;;;;;;;4973819;28;100742;-72
2023/08/27 10:09:53;;;;;;;1.83;1.73;;;;;;;;;;4987042;28;99834;-71
2023/08/27 10:12:20;;;;;;;1.75;1.65;;;;;;;;;;4986345;28;99903;-70
2023/08/27 10:14:47;;;;;;;3.03;1.17;;;;;;;;;;4985873;28;100571;-70
2023/08/27 10:17:15;;;;;;;4.05;1.55;;;;;;;;;;4972073;28;100062;-71
2023/08/27 10:19:42;;;;;;;1.35;1.30;;;;;;;;;;4967170;28;100033;-71
2023/08/27 10:22:10;;;;;;;1.13;1.13;;;;;;;;;;4967078;28;98856;-72
2023/08/27 10:24:38;;;;;;;1.60;1.00;;;;;;;;;;4967185;28;100650;-72
2023/08/27 10:27:05;;;;;;;1.60;1.40;;;;;;;;;;4967016;28;100486;-72
2023/08/27 10:29:33;;;;;;;1.83;1.20;;;;;;;;;;4970134;28;98916;-72
2023/08/27 10:32:00;;;;;;;1.10;1.10;;;;;;;;;;4966753;28;99549;-72
2023/08/27 10:34:30;;;;;;;2.90;1.50;;;;;;;;;;4966226;28;98803;-72
2023/08/27 10:37:02;;;;;;;1.27;1.17;;;;;;;;;;4966784;28;100705;-72
2023/08/27 10:39:29;;;;;;;2.15;1.23;;;;;;;;;;4966893;28;99060;-72
2023/08/27 10:41:56;;;;;;;3.13;1.15;;;;;;;;;;4981082;28;98942;-71
2023/08/27 10:44:22;;;;;;;0.95;0.95;;;;;;;;;;4972899;28;100739;-72
2023/08/27 10:47:08;;;;;;;2.80;1.05;;;;;;;;;;4970684;28;99789;-73
2023/08/27 10:49:36;;;;;;;1.52;1.10;;;;;;;;;;4969032;28;99601;-71
2023/08/27 10:52:32;;;;;;;3.35;0.75;;;;;;;;;;4969825;28;100816;-72
2023/08/27 10:54:59;;;;;;;1.65;1.17;;;;;;;;;;4966859;28;99947;-71
2023/08/27 10:57:25;;;;;;;0.80;0.80;;;;;;;;;;4967416;28;100428;-72
2023/08/27 11:00:05;;;;;;;2.55;1.05;;;;;;;;;;4964856;28;99856;-71
2023/08/27 11:02:52;;;;;;;1.27;0.80;;;;;;;;;;4972779;28;99560;-71
2023/08/27 11:05:25;;;;;;;0.82;0.82;;;;;;;;;;4971407;28;100334;-72
2023/08/27 11:07:51;;;;;;;0.73;0.70;;;;;;;;;;4978184;28;99894;-71
2023/08/27 11:10:18;;;;;;;1.15;0.70;;;;;;;;;;4969281;28;99805;-72
2023/08/27 11:12:44;;;;;;;0.70;0.70;;;;;;;;;;4976027;28;99829;-71
2023/08/27 11:15:13;;;;;;;3.05;0.73;;;;;;;;;;4994382;28;99271;-71
2023/08/27 11:17:40;;;;;;;2.08;0.90;;;;;;;;;;4982312;28;100418;-71
2023/08/27 11:20:23;;;;;;;0.63;0.63;;;;;;;;;;4969370;28;99459;-72
2023/08/27 11:22:53;;;;;;;0.82;0.60;;;;;;;;;;4973985;28;100254;-71
2023/08/27 11:25:20;;;;;;;0.60;0.60;;;;;;;;;;4975274;28;100588;-70
2023/08/27 11:27:46;;;;;;;0.70;0.68;;;;;;;;;;4973461;28;100695;-71
2023/08/27 11:30:13;;;;;;;1.48;0.85;;;;;;;;;;4972676;28;100636;-72
2023/08/27 11:32:41;;;;;;;1.42;0.60;;;;;;;;;;4969739;28;99355;-71
2023/08/27 11:35:11;;;;;;;1.05;0.63;;;;;;;;;;4987249;28;99088;-73
2023/08/27 11:37:38;;;;;;;4.95;0.80;;;;;;;;;;4970997;28;100446;-72
2023/08/27 11:40:14;;;;;;;1.02;0.98;;;;;;;;;;4974788;28;100785;-73
2023/08/27 11:42:54;;;;;;;2.72;0.85;;;;;;;;;;4972778;27;99222;-70
2023/08/27 11:45:30;;;;;;;0.80;0.80;;;;;;;;;;4979521;28;99587;-72
2023/08/27 11:48:02;;;;;;;1.75;0.60;;;;;;;;;;4974058;28;100247;-71
2023/08/27 11:50:29;;;;;;;0.70;0.70;;;;;;;;;;4972230;28;100099;-71
2023/08/27 11:52:55;;;;;;;0.77;0.77;;;;;;;;;;4974112;28;100201;-72
2023/08/27 11:55:23;;;;;;;0.70;0.70;;;;;;;;;;4969430;28;98882;-71
2023/08/27 11:57:51;;;;;;;3.38;0.80;;;;;;;;;;4976962;28;100387;-71
2023/08/27 12:00:18;;;;;;;0.60;0.60;;;;;;;;;;4970234;28;100019;-71
2023/08/27 12:02:44;;;;;;;0.85;0.85;;;;;;;;;;4976648;28;99833;-72
2023/08/27 12:05:11;;;;;;;0.60;0.60;;;;;;;;;;4974867;28;99412;-72
2023/08/27 12:07:37;;;;;;;2.55;0.93;;;;;;;;;;4970400;28;100472;-72
2023/08/27 12:10:08;;;;;;;2.35;0.90;;;;;;;;;;4968730;28;99409;-71
2023/08/27 12:12:37;;;;;;;0.73;0.60;;;;;;;;;;4978238;28;99464;-72
2023/08/27 12:15:03;;;;;;;0.70;0.70;;;;;;;;;;4969277;28;99344;-72
2023/08/27 12:17:34;;;;;;;2.13;0.65;;;;;;;;;;4984246;28;99850;-73
2023/08/27 12:20:03;;;;;;;0.73;0.73;;;;;;;;;;4975923;28;99128;-72
2023/08/27 12:22:29;;;;;;;0.70;0.70;;;;;;;;;;4981970;28;99192;-71
2023/08/27 12:24:58;;;;;;;2.55;0.80;;;;;;;;;;4974234;28;99231;-72
2023/08/27 12:27:25;;;;;;;0.85;0.70;;;;;;;;;;4971564;28;100724;-72
2023/08/27 12:29:53;;;;;;;1.55;0.70;;;;;;;;;;4972068;28;99870;-72
2023/08/27 12:32:20;;;;;;;1.10;0.70;;;;;;;;;;4986172;28;99676;-73
2023/08/27 12:34:47;;;;;;;2.28;1.10;;;;;;;;;;4969560;28;100076;-74
2023/08/27 12:37:17;;;;;;;3.97;0.73;;;;;;;;;;4971696;28;99152;-72
2023/08/27 12:39:45;;;;;;;0.57;0.57;;;;;;;;;;4978539;28;100874;-73
2023/08/27 12:42:12;;;;;;;1.30;0.70;;;;;;;;;;4975359;28;99401;-73
2023/08/27 12:44:38;;;;;;;1.73;1.05;;;;;;;;;;4972730;28;100501;-72
2023/08/27 12:47:07;;;;;;;1.60;1.00;;;;;;;;;;4975067;28;100041;-72
2023/08/27 12:49:33;;;;;;;0.73;0.73;;;;;;;;;;4967807;28;99773;-71
2023/08/27 12:52:00;;;;;;;2.35;0.57;;;;;;;;;;4970263;28;100382;-72
2023/08/27 12:54:27;;;;;;;1.27;0.68;;;;;;;;;;4968076;28;100278;-73
2023/08/27 12:56:54;;;;;;;0.52;0.52;;;;;;;;;;4972782;28;99896;-72
2023/08/27 12:59:21;;;;;;;1.92;0.60;;;;;;;;;;4968461;28;98772;-72
2023/08/27 13:01:48;;;;;;;1.23;1.10;;;;;;;;;;4966285;28;100477;-72
2023/08/27 13:04:14;;;;;;;0.73;0.73;;;;;;;;;;4975025;28;99607;-72
2023/08/27 13:06:43;;;;;;;1.30;0.80;;;;;;;;;;4970186;28;100157;-72
2023/08/27 13:09:13;;;;;;;1.35;0.88;;;;;;;;;;4968462;28;100301;-73
2023/08/27 13:11:42;;;;;;;1.08;1.00;;;;;;;;;;4970952;28;100468;-72
2023/08/27 13:14:09;;;;;;;1.45;1.35;;;;;;;;;;4972978;28;100530;-72
2023/08/27 13:16:38;;;;;;;0.80;0.80;;;;;;;;;;4970961;28;99135;-72
2023/08/27 13:19:07;;;;;;;0.65;0.65;;;;;;;;;;4970790;28;100669;-72
2023/08/27 13:21:33;;;;;;;4.20;1.02;;;;;;;;;;4969740;28;100626;-72
2023/08/27 13:24:01;;;;;;;1.23;0.80;;;;;;;;;;4975387;28;99037;-72
2023/08/27 13:26:28;;;;;;;1.52;0.80;;;;;;;;;;4969631;28;100120;-71
2023/08/27 13:28:54;;;;;;;2.13;0.90;;;;;;;;;;4971032;28;100050;-71
2023/08/27 13:31:21;;;;;;;1.42;1.13;;;;;;;;;;4969964;28;100962;-72
2023/08/27 13:33:48;;;;;;;3.08;0.95;;;;;;;;;;4972218;28;100435;-72
2023/08/27 13:36:14;;;;;;;3.75;1.25;;;;;;;;;;4972861;28;100260;-73
2023/08/27 13:38:41;;;;;;;1.42;0.93;;;;;;;;;;4970336;28;100908;-72
2023/08/27 13:41:07;;;;;;;2.97;1.02;;;;;;;;;;4968901;28;99237;-72
2023/08/27 13:43:34;;;;;;;2.05;1.00;;;;;;;;;;4969497;28;100243;-72
2023/08/27 13:46:07;;;;;;;1.02;1.02;;;;;;;;;;4966212;28;100843;-73
2023/08/27 13:48:34;;;;;;;1.63;1.17;;;;;;;;;;4974008;28;99050;-71
2023/08/27 13:51:01;;;;;;;1.17;1.17;;;;;;;;;;4966854;28;100887;-73
2023/08/27 13:53:27;;;;;;;2.25;1.00;;;;;;;;;;4970535;28;100221;-73
2023/08/27 13:55:54;;;;;;;1.30;1.23;;;;;;;;;;4971157;28;99966;-73
2023/08/27 13:58:20;;;;;;;1.55;1.35;;;;;;;;;;4973998;28;100643;-72
2023/08/27 14:00:47;;;;;;;1.48;1.38;;;;;;;;;;4970975;28;100117;-74
2023/08/27 14:03:13;;;;;;;1.27;1.27;;;;;;;;;;4970488;28;100138;-73
2023/08/27 14:05:41;;;;;;;4.03;1.30;;;;;;;;;;4972641;28;100953;-73
2023/08/27 14:08:07;;;;;;;4.47;1.42;;;;;;;;;;4971855;28;100051;-73
2023/08/27 14:10:40;;;;;;;2.30;1.40;;;;;;;;;;4965973;28;100586;-72
2023/08/27 14:13:06;;;;;;;3.65;1.60;;;;;;;;;;4970531;28;100102;-75
2023/08/27 14:15:33;;;;;;;3.92;1.48;;;;;;;;;;4970482;28;98733;-72
2023/08/27 14:18:00;;;;;;;1.83;1.50;;;;;;;;;;4983448;28;100823;-73
2023/08/27 14:20:28;;;;;;;2.88;1.63;;;;;;;;;;4963627;28;100664;-72
2023/08/27 14:22:55;;;;;;;1.80;1.30;;;;;;;;;;4970773;28;100450;-75
2023/08/27 14:25:21;;;;;;;0.93;0.93;;;;;;;;;;4970050;28;100048;-73
2023/08/27 14:27:48;;;;;;;1.20;1.02;;;;;;;;;;4972654;28;99819;-73
2023/08/27 14:30:15;;;;;;;0.90;0.90;;;;;;;;;;4968590;28;99745;-73
2023/08/27 14:32:41;;;;;;;1.38;1.27;;;;;;;;;;4975741;28;98893;-75
2023/08/27 14:35:08;;;;;;;1.45;1.35;;;;;;;;;;4970102;28;99899;-73
2023/08/27 14:37:35;;;;;;;1.42;1.33;;;;;;;;;;4970661;28;99888;-73